createdAt,value
2019-02-23T00:04:44.826Z,21
2019-02-23T00:09:44.573Z,25
2019-02-23T00:14:44.752Z,21
2019-02-23T00:19:44.610Z,23
2019-02-23T00:24:44.767Z,22
2019-02-23T00:29:44.445Z,26
2019-02-23T00:34:44.487Z,21
2019-02-23T00:39:44.598Z,26
2019-02-23T00:44:44.689Z,23
2019-02-23T00:49:44.551Z,23
2019-02-23T00:54:44.635Z,25
2019-02-23T00:59:44.675Z,22
2019-02-23T01:04:44.641Z,23
2019-02-23T01:09:44.711Z,25
2019-02-23T01:14:44.456Z,19
2019-02-23T01:19:47.712Z,21
2019-02-23T01:24:44.323Z,17
2019-02-23T01:29:44.672Z,24
2019-02-23T01:34:44.356Z,27
2019-02-23T01:39:44.655Z,26
2019-02-23T01:44:44.320Z,27
2019-02-23T01:49:44.419Z,27
2019-02-23T01:54:44.558Z,28
2019-02-23T01:59:44.439Z,24
2019-02-23T02:04:44.626Z,23
2019-02-23T02:09:44.504Z,24
2019-02-23T02:14:44.461Z,23
2019-02-23T02:19:44.484Z,25
2019-02-23T02:24:44.560Z,20
2019-02-23T02:29:44.416Z,23
2019-02-23T02:34:44.286Z,22
2019-02-23T02:39:44.522Z,24
2019-02-23T02:44:44.256Z,18
2019-02-23T02:49:44.209Z,22
2019-02-23T02:54:44.213Z,23
2019-02-23T02:59:44.239Z,23
2019-02-23T03:04:44.431Z,22
2019-02-23T03:09:44.224Z,22
2019-02-23T03:14:44.283Z,22
2019-02-23T03:19:44.299Z,21
2019-02-23T03:24:44.375Z,19
2019-02-23T03:29:44.146Z,19
2019-02-23T03:34:44.267Z,19
2019-02-23T03:39:44.400Z,21
2019-02-23T03:44:44.189Z,21
2019-02-23T03:49:44.437Z,21
2019-02-23T03:54:44.410Z,24
2019-02-23T03:59:44.462Z,19
2019-02-23T04:04:44.116Z,24
2019-02-23T04:09:44.368Z,22
2019-02-23T04:14:44.191Z,20
2019-02-23T04:19:44.079Z,21
2019-02-23T04:24:44.295Z,22
2019-02-23T04:29:46.938Z,22
2019-02-23T04:34:44.162Z,20
2019-02-23T04:39:44.253Z,20
2019-02-23T04:44:44.294Z,19
2019-02-23T04:49:44.234Z,21
2019-02-23T04:54:44.225Z,19
2019-02-23T04:59:44.465Z,18
2019-02-23T05:04:44.288Z,23
2019-02-23T05:09:44.177Z,21
2019-02-23T05:14:44.319Z,22
2019-02-23T05:19:44.137Z,22
2019-02-23T05:24:44.126Z,19
2019-02-23T05:29:44.157Z,19
2019-02-23T05:34:44.234Z,23
2019-02-23T05:39:44.005Z,24
2019-02-23T05:44:44.187Z,21
2019-02-23T05:49:44.049Z,21
2019-02-23T05:54:43.965Z,21
2019-02-23T05:59:44.258Z,22
2019-02-23T06:04:43.983Z,21
2019-02-23T06:09:44.001Z,21
2019-02-23T06:14:44.109Z,19
2019-02-23T06:19:44.251Z,17
2019-02-23T06:24:44.178Z,22
2019-02-23T06:29:44.128Z,23
2019-02-23T06:34:43.986Z,21
2019-02-23T06:39:43.879Z,20
2019-02-23T06:44:44.216Z,22
2019-02-23T06:49:44.061Z,20
2019-02-23T06:54:44.003Z,18
2019-02-23T06:59:43.932Z,18
2019-02-23T07:04:44.192Z,20
2019-02-23T07:09:43.919Z,18
2019-02-23T07:14:44.133Z,21
2019-02-23T07:19:43.981Z,22
2019-02-23T07:24:44.093Z,20
2019-02-23T07:29:43.992Z,20
2019-02-23T07:34:44.002Z,19
2019-02-23T07:39:43.772Z,19
2019-02-23T07:44:43.901Z,21
2019-02-23T07:49:44.135Z,19
2019-02-23T07:54:43.775Z,21
2019-02-23T07:59:44.033Z,23
2019-02-23T08:04:44.097Z,17
2019-02-23T08:09:44.018Z,20
2019-02-23T08:14:43.733Z,21
2019-02-23T08:19:43.999Z,20
2019-02-23T08:24:43.964Z,21
2019-02-23T08:29:54.147Z,21
2019-02-23T08:34:43.795Z,17
2019-02-23T08:39:44.178Z,21
2019-02-23T08:44:44.099Z,21
2019-02-23T08:49:43.802Z,18
2019-02-23T08:54:43.789Z,21
2019-02-23T08:59:43.823Z,21
2019-02-23T09:04:43.745Z,24
2019-02-23T09:09:43.991Z,18
2019-02-23T09:14:44.001Z,19
2019-02-23T09:19:43.805Z,19
2019-02-23T09:24:43.864Z,21
2019-02-23T09:29:43.615Z,18
2019-02-23T09:34:43.697Z,19
2019-02-23T09:39:43.709Z,18
2019-02-23T09:44:43.880Z,20
2019-02-23T09:49:43.627Z,17
2019-02-23T09:54:43.833Z,19
2019-02-23T09:59:43.693Z,19
2019-02-23T10:04:43.710Z,18
2019-02-23T10:09:43.790Z,18
2019-02-23T10:14:43.760Z,20
2019-02-23T10:19:43.681Z,16
2019-02-23T10:24:43.870Z,16
2019-02-23T10:29:43.754Z,21
2019-02-23T10:34:43.698Z,18
2019-02-23T10:39:43.614Z,18
2019-02-23T10:44:43.853Z,15
2019-02-23T10:49:43.548Z,16
2019-02-23T10:54:43.641Z,18
2019-02-23T10:59:43.784Z,15
2019-02-23T11:04:43.769Z,17
2019-02-23T11:09:43.643Z,17
2019-02-23T11:14:43.680Z,19
2019-02-23T11:19:43.583Z,16
2019-02-23T11:24:43.765Z,17
2019-02-23T11:29:43.749Z,15
2019-02-23T11:34:43.631Z,16
2019-02-23T11:39:43.690Z,16
2019-02-23T11:44:43.604Z,16
2019-02-23T11:49:43.479Z,16
2019-02-23T11:54:44.249Z,16
2019-02-23T11:59:43.457Z,16
2019-02-23T12:04:43.661Z,15
2019-02-23T12:09:43.434Z,16
2019-02-23T12:14:43.654Z,15
2019-02-23T12:19:43.610Z,15
2019-02-23T12:24:43.524Z,16
2019-02-23T12:29:43.434Z,14
2019-02-23T12:34:43.377Z,13
2019-02-23T12:39:43.863Z,15
2019-02-23T12:44:43.468Z,16
2019-02-23T12:49:43.425Z,17
2019-02-23T12:54:43.514Z,16
2019-02-23T12:59:43.315Z,17
2019-02-23T13:04:43.478Z,11
2019-02-23T13:09:43.556Z,12
2019-02-23T13:14:43.328Z,13
2019-02-23T13:19:43.634Z,14
2019-02-23T13:24:43.249Z,17
2019-02-23T13:29:43.496Z,14
2019-02-23T13:34:43.401Z,14
2019-02-23T13:39:43.570Z,12
2019-02-23T13:44:43.295Z,15
2019-02-23T13:49:43.288Z,13
2019-02-23T13:54:43.324Z,17
2019-02-23T13:59:43.514Z,15
2019-02-23T14:04:43.183Z,15
2019-02-23T14:09:43.474Z,13
2019-02-23T14:14:43.196Z,13
2019-02-23T14:19:43.329Z,14
2019-02-23T14:24:50.122Z,15
2019-02-23T14:29:43.366Z,12
2019-02-23T14:34:43.430Z,13
2019-02-23T14:39:43.273Z,13
2019-02-23T14:44:43.263Z,11
2019-02-23T14:49:43.491Z,12
2019-02-23T14:54:43.145Z,12
2019-02-23T14:59:43.404Z,15
2019-02-23T15:04:43.471Z,12
2019-02-23T15:09:43.477Z,12
2019-02-23T15:14:43.176Z,12
2019-02-23T15:19:43.384Z,13
2019-02-23T15:24:43.188Z,12
2019-02-23T15:29:43.207Z,14
2019-02-23T15:34:43.246Z,12
2019-02-23T15:39:43.254Z,16
2019-02-23T15:44:43.404Z,17
2019-02-23T15:49:43.418Z,12
2019-02-23T15:54:43.411Z,13
2019-02-23T15:59:44.515Z,14
2019-02-23T16:04:43.180Z,14
2019-02-23T16:09:43.041Z,12
2019-02-23T16:14:43.352Z,12
2019-02-23T16:19:43.268Z,11
2019-02-23T16:24:43.038Z,11
2019-02-23T16:29:43.062Z,14
2019-02-23T16:34:43.020Z,11
2019-02-23T16:39:43.107Z,15
2019-02-23T16:44:43.042Z,15
2019-02-23T16:49:42.953Z,11
2019-02-23T16:54:42.988Z,12
2019-02-23T16:59:43.109Z,11
2019-02-23T17:04:53.061Z,12
2019-02-23T17:09:42.999Z,12
2019-02-23T17:14:42.921Z,11
2019-02-23T17:19:43.024Z,12
2019-02-23T17:24:42.955Z,9
2019-02-23T17:29:43.122Z,11
2019-02-23T17:34:42.957Z,9
2019-02-23T17:39:43.172Z,11
2019-02-23T17:44:43.128Z,11
2019-02-23T17:49:43.034Z,10
2019-02-23T17:54:43.104Z,10
2019-02-23T17:59:43.042Z,12
2019-02-23T18:04:42.986Z,11
2019-02-23T18:11:01.091Z,10
2019-02-23T18:14:42.928Z,11
2019-02-23T18:19:42.842Z,13
2019-02-23T18:24:42.894Z,13
2019-02-23T18:29:42.866Z,13
2019-02-23T18:34:43.149Z,11
2019-02-23T18:39:42.827Z,12
2019-02-23T18:44:42.988Z,11
2019-02-23T18:49:43.109Z,12
2019-02-23T18:54:42.824Z,12
2019-02-23T18:59:42.816Z,15
2019-02-23T19:04:43.046Z,11
2019-02-23T19:09:42.822Z,10
2019-02-23T19:14:42.967Z,13
2019-02-23T19:19:42.882Z,13
2019-02-23T19:24:43.014Z,12
2019-02-23T19:29:43.038Z,13
2019-02-23T19:34:42.721Z,14
2019-02-23T19:39:42.827Z,13
2019-02-23T19:44:42.923Z,14
2019-02-23T19:49:42.931Z,11
2019-02-23T19:54:42.991Z,13
2019-02-23T19:59:42.837Z,14
2019-02-23T20:04:42.906Z,15
2019-02-23T20:09:42.765Z,12
2019-02-23T20:14:42.674Z,12
2019-02-23T20:19:42.864Z,16
2019-02-23T20:24:42.677Z,13
2019-02-23T20:29:42.796Z,13
2019-02-23T20:34:42.794Z,15
2019-02-23T20:39:53.193Z,14
2019-02-23T20:44:42.755Z,14
2019-02-23T20:49:42.871Z,14
2019-02-23T20:54:43.870Z,16
2019-02-23T20:59:42.959Z,17
2019-02-23T21:04:42.697Z,18
2019-02-23T21:09:42.632Z,14
2019-02-23T21:14:42.890Z,13
2019-02-23T21:19:42.691Z,16
2019-02-23T21:24:42.618Z,16
2019-02-23T21:29:42.653Z,16
2019-02-23T21:34:42.679Z,13
2019-02-23T21:39:42.647Z,13
2019-02-23T21:44:42.640Z,12
2019-02-23T21:49:42.621Z,12
2019-02-23T21:54:42.818Z,13
2019-02-23T21:59:42.766Z,12
2019-02-23T22:04:42.836Z,14
2019-02-23T22:09:42.729Z,14
2019-02-23T22:14:42.489Z,15
2019-02-23T22:19:42.673Z,14
2019-02-23T22:24:42.724Z,13
2019-02-23T22:29:42.534Z,12
2019-02-23T22:34:42.501Z,15
2019-02-23T22:39:42.482Z,13
2019-02-23T22:44:42.521Z,17
2019-02-23T22:49:42.449Z,14
2019-02-23T22:54:42.491Z,15
2019-02-23T22:59:42.734Z,14
2019-02-23T23:04:42.679Z,12
2019-02-23T23:09:42.452Z,13
2019-02-23T23:14:42.729Z,13
2019-02-23T23:19:42.493Z,14
2019-02-23T23:24:42.650Z,13
2019-02-23T23:29:42.779Z,11
2019-02-23T23:34:42.414Z,17
2019-02-23T23:39:42.647Z,15
2019-02-23T23:44:42.581Z,11
2019-02-23T23:49:42.652Z,12
2019-02-23T23:54:42.380Z,14
2019-02-23T23:59:42.416Z,12
